sensor_id;sensor_type;location;lat;lon;timestamp;temperature;humidity
72440;DHT22;60446;50.752;4.352;2023-02-22T00:01:54;2.70;85.80
72440;DHT22;60446;50.752;4.352;2023-02-22T00:04:37;2.70;86.10
72440;DHT22;60446;50.752;4.352;2023-02-22T00:07:06;2.80;86.00
72440;DHT22;60446;50.752;4.352;2023-02-22T00:09:34;2.80;86.00
72440;DHT22;60446;50.752;4.352;2023-02-22T00:12:01;2.90;86.40
72440;DHT22;60446;50.752;4.352;2023-02-22T00:14:28;2.90;86.30
72440;DHT22;60446;50.752;4.352;2023-02-22T00:16:55;2.90;86.20
72440;DHT22;60446;50.752;4.352;2023-02-22T00:19:26;2.90;86.00
72440;DHT22;60446;50.752;4.352;2023-02-22T00:21:56;2.90;86.20
72440;DHT22;60446;50.752;4.352;2023-02-22T00:24:23;2.90;86.00
72440;DHT22;60446;50.752;4.352;2023-02-22T00:26:52;2.90;85.90
72440;DHT22;60446;50.752;4.352;2023-02-22T00:29:22;2.90;86.00
72440;DHT22;60446;50.752;4.352;2023-02-22T00:31:50;3.00;85.70
72440;DHT22;60446;50.752;4.352;2023-02-22T00:34:18;3.00;85.30
72440;DHT22;60446;50.752;4.352;2023-02-22T00:36:48;2.80;85.20
72440;DHT22;60446;50.752;4.352;2023-02-22T00:39:16;2.80;85.70
72440;DHT22;60446;50.752;4.352;2023-02-22T00:56:22;2.60;85.90
72440;DHT22;60446;50.752;4.352;2023-02-22T00:58:55;2.60;85.80
72440;DHT22;60446;50.752;4.352;2023-02-22T01:01:46;2.60;85.90
72440;DHT22;60446;50.752;4.352;2023-02-22T01:04:31;2.60;85.70
72440;DHT22;60446;50.752;4.352;2023-02-22T01:07:39;2.60;85.60
72440;DHT22;60446;50.752;4.352;2023-02-22T01:10:33;2.60;85.30
72440;DHT22;60446;50.752;4.352;2023-02-22T01:13:17;2.50;85.00
72440;DHT22;60446;50.752;4.352;2023-02-22T01:16:06;2.50;84.90
72440;DHT22;60446;50.752;4.352;2023-02-22T01:18:46;2.40;85.20
72440;DHT22;60446;50.752;4.352;2023-02-22T01:21:16;2.50;85.30
72440;DHT22;60446;50.752;4.352;2023-02-22T01:23:57;2.50;85.00
72440;DHT22;60446;50.752;4.352;2023-02-22T01:29:50;2.40;85.20
72440;DHT22;60446;50.752;4.352;2023-02-22T01:32:29;2.50;85.20
72440;DHT22;60446;50.752;4.352;2023-02-22T01:35:16;2.40;85.50
72440;DHT22;60446;50.752;4.352;2023-02-22T01:37:59;2.30;85.50
72440;DHT22;60446;50.752;4.352;2023-02-22T01:41:24;2.40;85.90
72440;DHT22;60446;50.752;4.352;2023-02-22T01:44:32;2.40;85.60
72440;DHT22;60446;50.752;4.352;2023-02-22T01:47:20;2.50;85.50
72440;DHT22;60446;50.752;4.352;2023-02-22T01:50:03;2.50;85.30
72440;DHT22;60446;50.752;4.352;2023-02-22T01:53:02;2.50;85.30
72440;DHT22;60446;50.752;4.352;2023-02-22T01:55:42;2.60;85.20
72440;DHT22;60446;50.752;4.352;2023-02-22T01:58:21;2.50;85.20
72440;DHT22;60446;50.752;4.352;2023-02-22T02:01:26;2.50;85.40
72440;DHT22;60446;50.752;4.352;2023-02-22T02:04:22;2.60;85.20
72440;DHT22;60446;50.752;4.352;2023-02-22T02:07:17;2.60;85.00
72440;DHT22;60446;50.752;4.352;2023-02-22T02:09:56;2.50;85.10
72440;DHT22;60446;50.752;4.352;2023-02-22T02:12:50;2.50;85.40
72440;DHT22;60446;50.752;4.352;2023-02-22T02:15:40;2.50;85.30
72440;DHT22;60446;50.752;4.352;2023-02-22T02:18:32;2.50;85.50
72440;DHT22;60446;50.752;4.352;2023-02-22T02:21:39;2.50;85.30
72440;DHT22;60446;50.752;4.352;2023-02-22T02:39:59;2.40;85.60
72440;DHT22;60446;50.752;4.352;2023-02-22T02:43:32;2.40;85.70
72440;DHT22;60446;50.752;4.352;2023-02-22T02:46:50;2.50;85.60
72440;DHT22;60446;50.752;4.352;2023-02-22T02:50:23;2.50;85.20
72440;DHT22;60446;50.752;4.352;2023-02-22T02:53:21;2.40;85.10
72440;DHT22;60446;50.752;4.352;2023-02-22T02:56:20;2.30;85.20
72440;DHT22;60446;50.752;4.352;2023-02-22T02:59:29;2.30;85.50
72440;DHT22;60446;50.752;4.352;2023-02-22T03:23:22;2.10;86.10
72440;DHT22;60446;50.752;4.352;2023-02-22T03:26:00;2.10;86.30
72440;DHT22;60446;50.752;4.352;2023-02-22T03:28:32;2.10;86.60
72440;DHT22;60446;50.752;4.352;2023-02-22T03:31:15;2.10;86.30
72440;DHT22;60446;50.752;4.352;2023-02-22T03:33:56;2.20;86.30
72440;DHT22;60446;50.752;4.352;2023-02-22T03:36:33;2.20;86.20
72440;DHT22;60446;50.752;4.352;2023-02-22T03:39:10;2.20;86.00
72440;DHT22;60446;50.752;4.352;2023-02-22T03:41:46;2.20;86.10
72440;DHT22;60446;50.752;4.352;2023-02-22T03:44:17;2.20;86.10
72440;DHT22;60446;50.752;4.352;2023-02-22T03:46:51;2.30;86.10
72440;DHT22;60446;50.752;4.352;2023-02-22T03:50:02;2.20;86.00
72440;DHT22;60446;50.752;4.352;2023-02-22T03:52:38;2.20;86.20
72440;DHT22;60446;50.752;4.352;2023-02-22T03:55:14;2.30;86.20
72440;DHT22;60446;50.752;4.352;2023-02-22T03:58:16;2.20;85.90
72440;DHT22;60446;50.752;4.352;2023-02-22T04:00:52;2.20;85.80
72440;DHT22;60446;50.752;4.352;2023-02-22T04:03:46;2.20;85.90
72440;DHT22;60446;50.752;4.352;2023-02-22T04:06:38;2.20;85.80
72440;DHT22;60446;50.752;4.352;2023-02-22T04:09:20;2.20;85.60
72440;DHT22;60446;50.752;4.352;2023-02-22T04:12:10;2.20;85.50
72440;DHT22;60446;50.752;4.352;2023-02-22T04:15:08;2.20;85.60
72440;DHT22;60446;50.752;4.352;2023-02-22T04:17:37;2.20;85.50
72440;DHT22;60446;50.752;4.352;2023-02-22T04:20:36;2.10;85.60
72440;DHT22;60446;50.752;4.352;2023-02-22T04:23:31;2.20;85.70
72440;DHT22;60446;50.752;4.352;2023-02-22T04:26:26;2.20;85.30
72440;DHT22;60446;50.752;4.352;2023-02-22T04:29:12;2.30;85.00
72440;DHT22;60446;50.752;4.352;2023-02-22T04:31:55;2.30;85.20
72440;DHT22;60446;50.752;4.352;2023-02-22T04:34:33;2.40;85.00
72440;DHT22;60446;50.752;4.352;2023-02-22T04:37:08;2.40;84.70
72440;DHT22;60446;50.752;4.352;2023-02-22T04:39:40;2.50;84.70
72440;DHT22;60446;50.752;4.352;2023-02-22T04:42:30;2.60;84.60
72440;DHT22;60446;50.752;4.352;2023-02-22T04:45:24;2.60;84.40
72440;DHT22;60446;50.752;4.352;2023-02-22T04:48:29;2.60;84.70
72440;DHT22;60446;50.752;4.352;2023-02-22T04:51:27;2.60;84.80
72440;DHT22;60446;50.752;4.352;2023-02-22T04:54:13;2.60;84.80
72440;DHT22;60446;50.752;4.352;2023-02-22T04:56:53;2.70;84.50
72440;DHT22;60446;50.752;4.352;2023-02-22T04:59:28;2.70;84.10
72440;DHT22;60446;50.752;4.352;2023-02-22T05:02:11;2.80;84.10
72440;DHT22;60446;50.752;4.352;2023-02-22T05:05:01;2.80;83.60
72440;DHT22;60446;50.752;4.352;2023-02-22T05:07:33;2.70;84.00
72440;DHT22;60446;50.752;4.352;2023-02-22T05:10:31;2.70;84.50
72440;DHT22;60446;50.752;4.352;2023-02-22T05:13:22;2.70;84.80
72440;DHT22;60446;50.752;4.352;2023-02-22T05:16:38;2.70;84.20
72440;DHT22;60446;50.752;4.352;2023-02-22T05:19:15;2.80;84.20
72440;DHT22;60446;50.752;4.352;2023-02-22T05:21:56;2.80;83.90
72440;DHT22;60446;50.752;4.352;2023-02-22T05:24:51;2.80;83.80
72440;DHT22;60446;50.752;4.352;2023-02-22T05:27:31;2.80;83.90
72440;DHT22;60446;50.752;4.352;2023-02-22T05:30:05;2.80;84.00
72440;DHT22;60446;50.752;4.352;2023-02-22T05:32:42;2.80;84.00
72440;DHT22;60446;50.752;4.352;2023-02-22T05:35:21;2.80;84.40
72440;DHT22;60446;50.752;4.352;2023-02-22T05:38:04;2.80;83.60
72440;DHT22;60446;50.752;4.352;2023-02-22T05:40:41;2.80;84.30
72440;DHT22;60446;50.752;4.352;2023-02-22T05:43:20;2.80;84.60
72440;DHT22;60446;50.752;4.352;2023-02-22T05:46:04;3.00;84.10
72440;DHT22;60446;50.752;4.352;2023-02-22T05:48:50;3.00;83.20
72440;DHT22;60446;50.752;4.352;2023-02-22T05:51:28;3.00;84.40
72440;DHT22;60446;50.752;4.352;2023-02-22T05:54:08;3.00;84.10
72440;DHT22;60446;50.752;4.352;2023-02-22T05:57:05;2.90;84.10
72440;DHT22;60446;50.752;4.352;2023-02-22T05:59:39;3.00;84.50
72440;DHT22;60446;50.752;4.352;2023-02-22T06:02:29;3.00;84.60
72440;DHT22;60446;50.752;4.352;2023-02-22T06:05:01;3.00;83.80
72440;DHT22;60446;50.752;4.352;2023-02-22T06:07:30;3.00;83.70
72440;DHT22;60446;50.752;4.352;2023-02-22T06:10:07;2.90;84.00
72440;DHT22;60446;50.752;4.352;2023-02-22T06:12:43;2.90;83.50
72440;DHT22;60446;50.752;4.352;2023-02-22T06:15:17;2.90;83.90
72440;DHT22;60446;50.752;4.352;2023-02-22T06:18:01;2.80;83.80
72440;DHT22;60446;50.752;4.352;2023-02-22T06:20:44;2.80;83.60
72440;DHT22;60446;50.752;4.352;2023-02-22T06:23:26;2.70;83.60
72440;DHT22;60446;50.752;4.352;2023-02-22T06:26:07;2.60;83.90
72440;DHT22;60446;50.752;4.352;2023-02-22T06:28:52;2.60;83.90
72440;DHT22;60446;50.752;4.352;2023-02-22T06:31:24;2.60;83.40
72440;DHT22;60446;50.752;4.352;2023-02-22T06:34:01;2.60;83.60
72440;DHT22;60446;50.752;4.352;2023-02-22T06:37:00;2.60;83.20
72440;DHT22;60446;50.752;4.352;2023-02-22T06:40:13;2.60;83.50
72440;DHT22;60446;50.752;4.352;2023-02-22T06:43:03;2.50;84.00
72440;DHT22;60446;50.752;4.352;2023-02-22T06:45:56;2.50;84.10
72440;DHT22;60446;50.752;4.352;2023-02-22T06:48:47;2.40;84.20
72440;DHT22;60446;50.752;4.352;2023-02-22T06:51:38;2.50;83.90
72440;DHT22;60446;50.752;4.352;2023-02-22T06:54:10;2.40;83.80
72440;DHT22;60446;50.752;4.352;2023-02-22T06:56:56;2.40;83.90
72440;DHT22;60446;50.752;4.352;2023-02-22T06:59:31;2.40;84.00
72440;DHT22;60446;50.752;4.352;2023-02-22T07:02:13;2.40;84.30
72440;DHT22;60446;50.752;4.352;2023-02-22T07:04:46;2.40;84.50
72440;DHT22;60446;50.752;4.352;2023-02-22T07:07:35;2.40;84.70
72440;DHT22;60446;50.752;4.352;2023-02-22T07:10:26;2.40;84.90
72440;DHT22;60446;50.752;4.352;2023-02-22T07:13:09;2.40;84.80
72440;DHT22;60446;50.752;4.352;2023-02-22T07:15:38;2.50;84.80
72440;DHT22;60446;50.752;4.352;2023-02-22T07:18:06;2.50;84.60
72440;DHT22;60446;50.752;4.352;2023-02-22T07:20:37;2.60;84.70
72440;DHT22;60446;50.752;4.352;2023-02-22T07:23:05;2.60;84.80
72440;DHT22;60446;50.752;4.352;2023-02-22T07:25:34;2.70;84.90
72440;DHT22;60446;50.752;4.352;2023-02-22T07:28:04;2.70;85.00
72440;DHT22;60446;50.752;4.352;2023-02-22T07:30:33;2.90;84.80
72440;DHT22;60446;50.752;4.352;2023-02-22T07:33:03;3.00;84.90
72440;DHT22;60446;50.752;4.352;2023-02-22T07:35:38;3.10;85.30
72440;DHT22;60446;50.752;4.352;2023-02-22T07:38:14;3.20;85.30
72440;DHT22;60446;50.752;4.352;2023-02-22T07:40:43;3.30;84.60
72440;DHT22;60446;50.752;4.352;2023-02-22T07:43:29;3.40;84.10
72440;DHT22;60446;50.752;4.352;2023-02-22T07:46:03;3.50;85.00
72440;DHT22;60446;50.752;4.352;2023-02-22T07:48:30;3.60;84.30
72440;DHT22;60446;50.752;4.352;2023-02-22T07:50:58;3.80;84.00
72440;DHT22;60446;50.752;4.352;2023-02-22T07:53:28;3.90;83.80
72440;DHT22;60446;50.752;4.352;2023-02-22T07:56:01;4.00;84.40
72440;DHT22;60446;50.752;4.352;2023-02-22T07:58:33;4.20;84.30
72440;DHT22;60446;50.752;4.352;2023-02-22T08:01:03;4.30;84.00
72440;DHT22;60446;50.752;4.352;2023-02-22T08:03:33;4.40;84.30
72440;DHT22;60446;50.752;4.352;2023-02-22T08:06:04;4.50;84.10
72440;DHT22;60446;50.752;4.352;2023-02-22T08:08:32;4.60;84.00
72440;DHT22;60446;50.752;4.352;2023-02-22T08:11:00;4.70;83.80
72440;DHT22;60446;50.752;4.352;2023-02-22T08:13:28;4.80;84.30
72440;DHT22;60446;50.752;4.352;2023-02-22T08:15:55;4.90;82.90
72440;DHT22;60446;50.752;4.352;2023-02-22T08:18:23;4.90;82.90
72440;DHT22;60446;50.752;4.352;2023-02-22T08:20:52;5.00;82.80
72440;DHT22;60446;50.752;4.352;2023-02-22T08:23:24;5.20;82.70
72440;DHT22;60446;50.752;4.352;2023-02-22T08:25:53;5.20;83.10
72440;DHT22;60446;50.752;4.352;2023-02-22T08:28:22;5.30;83.60
72440;DHT22;60446;50.752;4.352;2023-02-22T08:30:50;5.40;84.10
72440;DHT22;60446;50.752;4.352;2023-02-22T08:33:18;5.60;84.10
72440;DHT22;60446;50.752;4.352;2023-02-22T08:35:47;5.70;83.80
72440;DHT22;60446;50.752;4.352;2023-02-22T08:38:21;5.80;83.60
72440;DHT22;60446;50.752;4.352;2023-02-22T08:40:49;5.90;82.90
72440;DHT22;60446;50.752;4.352;2023-02-22T08:43:17;6.10;83.20
72440;DHT22;60446;50.752;4.352;2023-02-22T08:45:47;6.20;82.60
72440;DHT22;60446;50.752;4.352;2023-02-22T08:48:17;6.30;83.10
72440;DHT22;60446;50.752;4.352;2023-02-22T08:50:44;6.40;82.50
72440;DHT22;60446;50.752;4.352;2023-02-22T08:53:12;6.50;82.10
72440;DHT22;60446;50.752;4.352;2023-02-22T08:55:42;6.50;81.40
72440;DHT22;60446;50.752;4.352;2023-02-22T08:58:10;6.50;81.20
72440;DHT22;60446;50.752;4.352;2023-02-22T09:00:42;6.50;81.80
72440;DHT22;60446;50.752;4.352;2023-02-22T09:03:13;6.60;81.80
72440;DHT22;60446;50.752;4.352;2023-02-22T09:05:43;6.70;81.50
72440;DHT22;60446;50.752;4.352;2023-02-22T09:08:11;6.70;82.20
72440;DHT22;60446;50.752;4.352;2023-02-22T09:10:39;6.70;82.90
72440;DHT22;60446;50.752;4.352;2023-02-22T09:13:06;6.70;82.50
72440;DHT22;60446;50.752;4.352;2023-02-22T09:15:36;6.80;82.50
72440;DHT22;60446;50.752;4.352;2023-02-22T09:18:06;6.80;82.80
72440;DHT22;60446;50.752;4.352;2023-02-22T09:20:35;6.80;82.00
72440;DHT22;60446;50.752;4.352;2023-02-22T09:23:05;6.90;82.80
72440;DHT22;60446;50.752;4.352;2023-02-22T09:25:32;6.90;83.10
72440;DHT22;60446;50.752;4.352;2023-02-22T09:28:04;6.90;83.00
72440;DHT22;60446;50.752;4.352;2023-02-22T09:30:34;7.00;81.10
72440;DHT22;60446;50.752;4.352;2023-02-22T09:33:24;7.00;82.30
72440;DHT22;60446;50.752;4.352;2023-02-22T09:35:51;7.00;82.20
72440;DHT22;60446;50.752;4.352;2023-02-22T09:38:21;7.20;82.40
72440;DHT22;60446;50.752;4.352;2023-02-22T09:41:21;7.20;82.90
72440;DHT22;60446;50.752;4.352;2023-02-22T09:47:14;7.40;81.40
72440;DHT22;60446;50.752;4.352;2023-02-22T09:52:28;7.80;81.00
72440;DHT22;60446;50.752;4.352;2023-02-22T09:55:18;7.90;81.30
72440;DHT22;60446;50.752;4.352;2023-02-22T09:57:56;8.00;81.60
72440;DHT22;60446;50.752;4.352;2023-02-22T10:00:31;8.00;81.20
72440;DHT22;60446;50.752;4.352;2023-02-22T10:03:28;8.10;80.00
72440;DHT22;60446;50.752;4.352;2023-02-22T10:06:23;8.20;78.90
72440;DHT22;60446;50.752;4.352;2023-02-22T10:08:57;8.30;79.30
72440;DHT22;60446;50.752;4.352;2023-02-22T10:14:31;8.50;78.50
72440;DHT22;60446;50.752;4.352;2023-02-22T10:20:06;8.60;79.30
72440;DHT22;60446;50.752;4.352;2023-02-22T10:23:19;8.80;78.00
72440;DHT22;60446;50.752;4.352;2023-02-22T10:25:55;8.90;79.30
72440;DHT22;60446;50.752;4.352;2023-02-22T10:28:38;9.00;77.70
72440;DHT22;60446;50.752;4.352;2023-02-22T10:31:14;9.10;76.00
72440;DHT22;60446;50.752;4.352;2023-02-22T10:33:56;9.20;76.10
72440;DHT22;60446;50.752;4.352;2023-02-22T10:36:26;9.30;77.90
72440;DHT22;60446;50.752;4.352;2023-02-22T10:39:30;9.20;75.30
72440;DHT22;60446;50.752;4.352;2023-02-22T10:41:57;9.40;75.60
72440;DHT22;60446;50.752;4.352;2023-02-22T10:44:35;9.50;75.80
72440;DHT22;60446;50.752;4.352;2023-02-22T10:47:09;9.40;75.70
72440;DHT22;60446;50.752;4.352;2023-02-22T10:49:45;9.40;75.70
72440;DHT22;60446;50.752;4.352;2023-02-22T10:52:32;9.40;76.50
72440;DHT22;60446;50.752;4.352;2023-02-22T10:55:01;9.50;76.10
72440;DHT22;60446;50.752;4.352;2023-02-22T10:57:43;9.60;76.00
72440;DHT22;60446;50.752;4.352;2023-02-22T11:03:03;9.80;75.60
72440;DHT22;60446;50.752;4.352;2023-02-22T11:05:35;9.80;74.20
72440;DHT22;60446;50.752;4.352;2023-02-22T11:08:24;9.80;74.60
72440;DHT22;60446;50.752;4.352;2023-02-22T11:11:00;9.90;73.90
72440;DHT22;60446;50.752;4.352;2023-02-22T11:13:54;9.90;74.10
72440;DHT22;60446;50.752;4.352;2023-02-22T11:21:42;9.70;73.80
72440;DHT22;60446;50.752;4.352;2023-02-22T11:24:12;9.70;75.20
72440;DHT22;60446;50.752;4.352;2023-02-22T11:26:43;9.70;73.40
72440;DHT22;60446;50.752;4.352;2023-02-22T11:29:30;9.70;73.20
72440;DHT22;60446;50.752;4.352;2023-02-22T11:32:15;9.80;73.40
72440;DHT22;60446;50.752;4.352;2023-02-22T11:34:49;10.00;73.10
72440;DHT22;60446;50.752;4.352;2023-02-22T11:37:34;10.10;72.20
72440;DHT22;60446;50.752;4.352;2023-02-22T11:42:38;10.30;72.80
72440;DHT22;60446;50.752;4.352;2023-02-22T11:47:54;10.50;71.60
72440;DHT22;60446;50.752;4.352;2023-02-22T11:50:42;10.50;72.10
72440;DHT22;60446;50.752;4.352;2023-02-22T11:53:31;10.50;71.10
72440;DHT22;60446;50.752;4.352;2023-02-22T11:56:15;10.50;71.20
72440;DHT22;60446;50.752;4.352;2023-02-22T12:02:04;10.70;71.80
72440;DHT22;60446;50.752;4.352;2023-02-22T12:05:15;10.80;70.40
72440;DHT22;60446;50.752;4.352;2023-02-22T12:13:42;11.10;70.60
72440;DHT22;60446;50.752;4.352;2023-02-22T12:19:50;10.90;71.50
72440;DHT22;60446;50.752;4.352;2023-02-22T12:22:35;10.90;70.80
72440;DHT22;60446;50.752;4.352;2023-02-22T12:25:24;10.80;71.10
72440;DHT22;60446;50.752;4.352;2023-02-22T12:31:51;10.70;72.00
72440;DHT22;60446;50.752;4.352;2023-02-22T12:34:23;10.80;71.40
72440;DHT22;60446;50.752;4.352;2023-02-22T12:43:18;10.70;73.30
72440;DHT22;60446;50.752;4.352;2023-02-22T12:52:06;10.80;73.60
72440;DHT22;60446;50.752;4.352;2023-02-22T12:58:23;10.80;72.80
72440;DHT22;60446;50.752;4.352;2023-02-22T13:03:35;11.10;72.60
72440;DHT22;60446;50.752;4.352;2023-02-22T13:20:45;11.00;72.80
72440;DHT22;60446;50.752;4.352;2023-02-22T13:29:03;11.00;72.20
72440;DHT22;60446;50.752;4.352;2023-02-22T13:38:08;10.70;72.30
72440;DHT22;60446;50.752;4.352;2023-02-22T13:40:57;10.60;72.80
72440;DHT22;60446;50.752;4.352;2023-02-22T13:49:35;10.40;73.00
72440;DHT22;60446;50.752;4.352;2023-02-22T13:52:28;10.40;73.40
72440;DHT22;60446;50.752;4.352;2023-02-22T13:55:18;10.40;73.90
72440;DHT22;60446;50.752;4.352;2023-02-22T13:57:49;10.40;73.40
72440;DHT22;60446;50.752;4.352;2023-02-22T14:00:20;10.30;73.50
72440;DHT22;60446;50.752;4.352;2023-02-22T14:03:05;10.40;73.10
72440;DHT22;60446;50.752;4.352;2023-02-22T14:16:29;10.20;73.60
72440;DHT22;60446;50.752;4.352;2023-02-22T14:19:17;10.10;74.00
72440;DHT22;60446;50.752;4.352;2023-02-22T14:22:07;10.00;74.50
72440;DHT22;60446;50.752;4.352;2023-02-22T14:24:46;10.00;74.40
72440;DHT22;60446;50.752;4.352;2023-02-22T14:27:27;10.00;75.10
72440;DHT22;60446;50.752;4.352;2023-02-22T14:30:24;10.00;75.20
72440;DHT22;60446;50.752;4.352;2023-02-22T14:34:08;9.90;74.90
72440;DHT22;60446;50.752;4.352;2023-02-22T14:36:32;9.90;75.40
72440;DHT22;60446;50.752;4.352;2023-02-22T14:39:44;9.90;75.00
72440;DHT22;60446;50.752;4.352;2023-02-22T14:42:35;9.80;75.30
72440;DHT22;60446;50.752;4.352;2023-02-22T14:45:30;9.90;75.50
72440;DHT22;60446;50.752;4.352;2023-02-22T14:48:40;9.90;75.80
72440;DHT22;60446;50.752;4.352;2023-02-22T14:54:45;9.90;75.30
72440;DHT22;60446;50.752;4.352;2023-02-22T15:03:48;9.70;76.00
72440;DHT22;60446;50.752;4.352;2023-02-22T15:06:33;9.60;76.20
72440;DHT22;60446;50.752;4.352;2023-02-22T15:09:07;9.60;76.30
72440;DHT22;60446;50.752;4.352;2023-02-22T15:11:41;9.60;76.80
72440;DHT22;60446;50.752;4.352;2023-02-22T15:14:20;9.60;76.30
72440;DHT22;60446;50.752;4.352;2023-02-22T15:16:58;9.50;76.50
72440;DHT22;60446;50.752;4.352;2023-02-22T15:20:07;9.50;77.30
72440;DHT22;60446;50.752;4.352;2023-02-22T15:22:45;9.60;76.70
72440;DHT22;60446;50.752;4.352;2023-02-22T15:25:24;9.50;77.00
72440;DHT22;60446;50.752;4.352;2023-02-22T15:28:13;9.50;76.10
72440;DHT22;60446;50.752;4.352;2023-02-22T15:30:51;9.30;76.90
72440;DHT22;60446;50.752;4.352;2023-02-22T15:33:56;9.30;76.80
72440;DHT22;60446;50.752;4.352;2023-02-22T15:36:51;9.30;76.40
72440;DHT22;60446;50.752;4.352;2023-02-22T15:39:36;9.20;76.10
72440;DHT22;60446;50.752;4.352;2023-02-22T15:42:16;9.00;76.30
72440;DHT22;60446;50.752;4.352;2023-02-22T15:44:51;9.00;76.60
72440;DHT22;60446;50.752;4.352;2023-02-22T15:47:54;8.90;76.80
72440;DHT22;60446;50.752;4.352;2023-02-22T15:50:35;8.90;77.70
72440;DHT22;60446;50.752;4.352;2023-02-22T15:55:57;8.80;77.40
72440;DHT22;60446;50.752;4.352;2023-02-22T15:58:29;8.80;77.80
72440;DHT22;60446;50.752;4.352;2023-02-22T16:01:10;8.70;77.90
72440;DHT22;60446;50.752;4.352;2023-02-22T16:03:47;8.80;77.40
72440;DHT22;60446;50.752;4.352;2023-02-22T16:06:30;8.80;77.90
72440;DHT22;60446;50.752;4.352;2023-02-22T16:09:14;8.80;77.80
72440;DHT22;60446;50.752;4.352;2023-02-22T16:11:46;8.80;78.00
72440;DHT22;60446;50.752;4.352;2023-02-22T16:14:28;8.80;77.80
72440;DHT22;60446;50.752;4.352;2023-02-22T16:17:36;8.80;78.30
72440;DHT22;60446;50.752;4.352;2023-02-22T16:22:45;8.70;78.80
72440;DHT22;60446;50.752;4.352;2023-02-22T16:27:57;8.50;79.60
72440;DHT22;60446;50.752;4.352;2023-02-22T16:30:37;8.40;79.90
72440;DHT22;60446;50.752;4.352;2023-02-22T16:33:08;8.40;80.30
72440;DHT22;60446;50.752;4.352;2023-02-22T16:35:42;8.40;80.30
72440;DHT22;60446;50.752;4.352;2023-02-22T16:38:18;8.50;80.40
72440;DHT22;60446;50.752;4.352;2023-02-22T16:40:51;8.50;80.30
72440;DHT22;60446;50.752;4.352;2023-02-22T16:43:25;8.50;80.40
72440;DHT22;60446;50.752;4.352;2023-02-22T16:45:55;8.50;80.40
72440;DHT22;60446;50.752;4.352;2023-02-22T16:48:33;8.50;80.70
72440;DHT22;60446;50.752;4.352;2023-02-22T16:51:18;8.50;80.90
72440;DHT22;60446;50.752;4.352;2023-02-22T16:53:49;8.50;80.80
72440;DHT22;60446;50.752;4.352;2023-02-22T16:56:28;8.50;80.80
72440;DHT22;60446;50.752;4.352;2023-02-22T16:59:09;8.40;81.10
72440;DHT22;60446;50.752;4.352;2023-02-22T17:01:40;8.40;81.30
72440;DHT22;60446;50.752;4.352;2023-02-22T17:04:23;8.40;81.20
72440;DHT22;60446;50.752;4.352;2023-02-22T17:06:54;8.40;81.30
72440;DHT22;60446;50.752;4.352;2023-02-22T17:09:39;8.40;81.60
72440;DHT22;60446;50.752;4.352;2023-02-22T17:12:20;8.40;81.50
72440;DHT22;60446;50.752;4.352;2023-02-22T17:14:51;8.40;81.50
72440;DHT22;60446;50.752;4.352;2023-02-22T17:17:20;8.40;81.40
72440;DHT22;60446;50.752;4.352;2023-02-22T17:20:00;8.40;81.50
72440;DHT22;60446;50.752;4.352;2023-02-22T17:22:37;8.30;81.60
72440;DHT22;60446;50.752;4.352;2023-02-22T17:25:20;8.40;81.60
72440;DHT22;60446;50.752;4.352;2023-02-22T17:27:54;8.40;81.60
72440;DHT22;60446;50.752;4.352;2023-02-22T17:30:24;8.40;81.70
72440;DHT22;60446;50.752;4.352;2023-02-22T17:32:52;8.40;81.80
72440;DHT22;60446;50.752;4.352;2023-02-22T17:35:37;8.40;81.60
72440;DHT22;60446;50.752;4.352;2023-02-22T17:38:06;8.40;81.60
72440;DHT22;60446;50.752;4.352;2023-02-22T17:40:52;8.40;81.60
72440;DHT22;60446;50.752;4.352;2023-02-22T17:43:34;8.40;82.10
72440;DHT22;60446;50.752;4.352;2023-02-22T17:46:07;8.40;81.60
72440;DHT22;60446;50.752;4.352;2023-02-22T17:48:34;8.40;81.70
72440;DHT22;60446;50.752;4.352;2023-02-22T17:51:06;8.40;81.70
72440;DHT22;60446;50.752;4.352;2023-02-22T17:53:44;8.40;81.30
72440;DHT22;60446;50.752;4.352;2023-02-22T17:56:16;8.40;81.40
72440;DHT22;60446;50.752;4.352;2023-02-22T17:58:56;8.40;81.50
72440;DHT22;60446;50.752;4.352;2023-02-22T18:01:30;8.40;81.40
72440;DHT22;60446;50.752;4.352;2023-02-22T18:04:13;8.30;81.50
72440;DHT22;60446;50.752;4.352;2023-02-22T18:06:42;8.30;81.40
72440;DHT22;60446;50.752;4.352;2023-02-22T18:09:15;8.30;81.10
72440;DHT22;60446;50.752;4.352;2023-02-22T18:11:43;8.40;81.10
72440;DHT22;60446;50.752;4.352;2023-02-22T18:14:10;8.30;81.20
72440;DHT22;60446;50.752;4.352;2023-02-22T18:16:43;8.30;81.20
72440;DHT22;60446;50.752;4.352;2023-02-22T18:19:12;8.30;81.10
72440;DHT22;60446;50.752;4.352;2023-02-22T18:21:47;8.40;81.00
72440;DHT22;60446;50.752;4.352;2023-02-22T18:24:17;8.40;81.00
72440;DHT22;60446;50.752;4.352;2023-02-22T18:26:46;8.40;81.10
72440;DHT22;60446;50.752;4.352;2023-02-22T18:29:14;8.30;81.10
72440;DHT22;60446;50.752;4.352;2023-02-22T18:31:44;8.30;81.30
72440;DHT22;60446;50.752;4.352;2023-02-22T18:34:11;8.40;81.10
72440;DHT22;60446;50.752;4.352;2023-02-22T18:36:41;8.40;80.80
72440;DHT22;60446;50.752;4.352;2023-02-22T18:39:10;8.30;80.80
72440;DHT22;60446;50.752;4.352;2023-02-22T18:41:40;8.30;81.10
72440;DHT22;60446;50.752;4.352;2023-02-22T18:44:07;8.30;81.00
72440;DHT22;60446;50.752;4.352;2023-02-22T18:46:39;8.30;81.00
72440;DHT22;60446;50.752;4.352;2023-02-22T18:49:15;8.30;81.10
72440;DHT22;60446;50.752;4.352;2023-02-22T18:51:44;8.30;80.90
72440;DHT22;60446;50.752;4.352;2023-02-22T18:54:15;8.30;80.80
72440;DHT22;60446;50.752;4.352;2023-02-22T18:56:42;8.30;80.90
72440;DHT22;60446;50.752;4.352;2023-02-22T18:59:11;8.30;81.10
72440;DHT22;60446;50.752;4.352;2023-02-22T19:01:40;8.30;80.80
72440;DHT22;60446;50.752;4.352;2023-02-22T19:04:14;8.30;81.10
72440;DHT22;60446;50.752;4.352;2023-02-22T19:06:43;8.30;81.00
72440;DHT22;60446;50.752;4.352;2023-02-22T19:09:14;8.30;80.80
72440;DHT22;60446;50.752;4.352;2023-02-22T19:11:42;8.30;80.90
72440;DHT22;60446;50.752;4.352;2023-02-22T19:14:11;8.30;81.00
72440;DHT22;60446;50.752;4.352;2023-02-22T19:16:45;8.30;80.90
72440;DHT22;60446;50.752;4.352;2023-02-22T19:19:16;8.30;80.90
72440;DHT22;60446;50.752;4.352;2023-02-22T19:21:48;8.30;80.90
72440;DHT22;60446;50.752;4.352;2023-02-22T19:24:16;8.20;81.00
72440;DHT22;60446;50.752;4.352;2023-02-22T19:26:46;8.20;81.10
72440;DHT22;60446;50.752;4.352;2023-02-22T19:29:19;8.20;81.10
72440;DHT22;60446;50.752;4.352;2023-02-22T19:31:49;8.20;81.00
72440;DHT22;60446;50.752;4.352;2023-02-22T19:34:19;8.20;81.10
72440;DHT22;60446;50.752;4.352;2023-02-22T19:36:47;8.20;81.30
72440;DHT22;60446;50.752;4.352;2023-02-22T19:39:17;8.20;80.90
72440;DHT22;60446;50.752;4.352;2023-02-22T19:41:46;8.20;80.80
72440;DHT22;60446;50.752;4.352;2023-02-22T19:44:13;8.20;81.10
72440;DHT22;60446;50.752;4.352;2023-02-22T19:46:54;8.20;81.10
72440;DHT22;60446;50.752;4.352;2023-02-22T19:49:27;8.10;81.20
72440;DHT22;60446;50.752;4.352;2023-02-22T19:51:56;8.10;81.40
72440;DHT22;60446;50.752;4.352;2023-02-22T19:54:26;8.10;81.40
72440;DHT22;60446;50.752;4.352;2023-02-22T19:57:05;8.10;81.60
72440;DHT22;60446;50.752;4.352;2023-02-22T19:59:35;8.10;81.60